METAR AND TAF INFORMATION
METAR FOR LIPR
ADDS - METARS form results

(2313 UTC 17 February 2020)
Data provider http://aviationweather.gov/metar/data/
 
METAR text: LIPR 172250Z AUTO 18004KT 9999 BKN051/// 11/05 Q1023
Conditions at: LIPR (RIMINI (CIV/IT-A, IT) observed 2250 UTC 17 February 2020
Temperature: 11.0°C (52°F)
Dewpoint: 5.0°C (41°F) [RH = 66%]
Pressure (altimeter): 30.21 inches Hg (1023.0 mb)
Winds: from the S (180 degrees) at 5 MPH (4 knots; 2.1 m/s)
Visibility: 6 or more miles (10+ km)
Ceiling: 5100 feet AGL
Clouds: broken clouds at 5100 feet AGL
Weather: no significant weather observed at this time

METAR text: LIPR 172220Z AUTO VRB01KT 9999 SCT053/// 10/05 Q1023
Conditions at: LIPR (RIMINI (CIV/IT-A, IT) observed 2220 UTC 17 February 2020
Temperature: 10.0°C (50°F)
Dewpoint: 5.0°C (41°F) [RH = 71%]
Pressure (altimeter): 30.21 inches Hg (1023.0 mb)
Winds: variable direction winds at 1 MPH (1 knots; 0.5 m/s)
Visibility: 6 or more miles (10+ km)
Ceiling: at least 12,000 feet AGL
Clouds: scattered clouds at 5300 feet AGL
Weather: no significant weather observed at this time

Forecast for: LIPR (RIMINI (CIV/IT-A, IT)
Text: TAF LIPR 172000Z 1721/1806 25007KT CAVOK
Forecast period: 2100 UTC 17 February 2020 to 0600 UTC 18 February 2020
Forecast type: FROM: standard forecast or significant change
Winds: from the WSW (250 degrees) at 8 MPH (7 knots; 3.6 m/s)
Visibility: 6 or more miles 10+ km)
Ceiling: unknown
Clouds: missing
Weather: NSW  (no significant weather)

 AIRPORT MAP

 RUNWAY INFORMATION
Runway 13 Runway length 9828 ft Runway width 148 ft
Runway elevation 21 ft Runway displaced threshold 1030 ft Runway heading 128
Runway 31 Runway length 9828 ft Runway width 148 ft
Runway elevation 39 ft Runway displaced threshold 1006 ft Runway heading 308

 AIRPORT FREQUENCIES
Type APP Name ROMAGNA AP Frequency 36.23 MHZ
Type APP Name ROMAGNA AP Frequency 118.15 MHZ
Type GCCD Name GND/CLNC D Frequency 121.6 MHZ
Type TWR Name TWR Frequency 119.1 MHZ

 AIRPORT NEAR NAVIGATION AIDS
Type VORTAC Name Rimini Frequency 116200 KHZ
Type NDB Name Rimini Frequency 335 KHZ